Terminal Aerodrome Forecast
Issued by NWS

Home | Current Version | Previous Version | Text Only | Print | Product List | Glossary On
Versions: 1 2 3 4 5 6 7 8 9 10 11 12
119
FTUS45 KABQ 182339
TAFGUP
TAF
KGUP 182339Z 1900/1924 VRB04KT P6SM BKN200
     FM191500 21006KT P6SM BKN120
     FM192000 23014KT P6SM VCSH OVC100=

USA.gov is the U.S. government's official web portal to all federal, state and local government web resources and services.